Orlando, FL

7:06 PM EDT on August 01, 2015 (GMT -0400)
Lake Como | | Change Station
CLOSE
Current Station
Personal Weather Station
Location: Orlando, FL
Elevation: 154 ft
Nearby Weather Stations

Elev 154 ft 28.54 °N, 81.35 °W | Updated 14 minutes ago

Mostly Cloudy
Mostly Cloudy
76.1 °F
Feels Like 76 °F
N
0.0
Wind Variable Wind from South

Today
High -- | Low -- °F
--% Chance of Precip.
Yesterday
High -- | Low -- °F
Precip. -- in
6:47 AM 8:16 PM
Full, 97% visible
Pressure 29.96 in
Visibility 10.0 miles
Clouds Mostly Cloudy 10000 ft
Heat Index 76 °F
Dew Point 72 °F
Humidity 88%
Rainfall 0.93 in
Snow Depth Not available.
UV 1 out of 12
Pollen .60 out of 12
Air Quality Not available.
Flu Activity Not available.
METAR KORL 012253Z 20008KT 10SM BKN100 24/23 A2995 RMK AO2 SLP145 T02440233

More Conditions Fewer Conditions

Pressure 29.96 in
Visibility 10.0 miles
Clouds Mostly Cloudy 10000 ft
Heat Index 76 °F
Dew Point 72 °F
Humidity 88%
Rainfall 0.93 in
Snow Depth Not available.
UV 1 out of 12
Pollen .60 out of 12
Air Quality Not available.
Flu Activity Not available.
METAR KORL 012253Z 20008KT 10SM BKN100 24/23 A2995 RMK AO2 SLP145 T02440233

More Conditions Fewer Conditions

Nowcast | as of 6:06 PM EDT on August 1, 2015

A primary band of rain with embedded thunderstorms will affect southern Osceola and southern Brevard counties early this evening as well as portions of western Indian River County. Locally heavy rain will occur with quick one half to one inch amounts possible which could produce temporary flooding especially in urban areas. Lingering rain will affect Volusia County including Daytona Beach...northern Brevard County...including Titusville as well as Martin County...including Stuart and Hobe Sound. Additional details...including graphics are available online at: http://www.Srh.NOAA.Gov/mlb/blog.Php

×

10-Day Weather Forecast

×

Almanac

Astronomy

Aug. 01, 2015 Rise Set
Actual Time
Civil Twilight
Nautical Twilight
Astronomical Twilight
Moon
Length of Visible Light
Length of Day
Tomorrow will be .
, % of the Moon is Illuminated

Today's Extremes

State Highs State Lows

Community

WunderPhotos

Upload Photos

1,843,087 photos uploaded!

WunderBlogs® & News

Nearby

Air Quality

  Air Quality AQ Index Pollutant
Not available.

Snow Depth

Station Depth Elevation

Earthquake Activity

City Distance Mag. Time & Date
Minimum magnitude displayed is 2.5.

Coastal Water Temperatures

Place Temperature

Stations

Nearby Weather Stations

Station Location Temp. Windchill Dew Point Humidity Wind Precip. Elev Updated Type